Portada
METAR-TAF:

METAR-TAF

Aeroports :

Hammond Northshore Regional Airport

Hammond, Louisiana, Estats Units d'Amèrica

latitud: 30-31-15N, longitud: 090-25-03W, altitud: 13 m

Observació

L'informe es va fer fa 21 minuts, a les 16:55 UTC
Vent 3 kt del Sud-Est
Temperatura 30°C
Humitat 46%
Pressió 1020 hPa
Visibilitat: 16.1 km
Cel clar

METAR: KHDC 011655Z AUTO 13003KT 10SM CLR 30/17 A3013 RMK AO2

Hora: 12:16 (17:16 UTC)

Pronòstic

L'informe es va fer fa 5 hores i 56 minuts, a les 11:20 UTC
Pronòstic vàlid del 01 a les 12 UTC al 02 a les 12 UTC
Vent 5 kt del Nord-Est
Visibilitat: 10 km
Cel ennuvolat a una alçada de 25000 ft
A partir de les 02 a les 0100 UTC
Vent kt del Nord
Visibilitat: 10 km
Escasses núvols a una alçada de 4500 ft
Cel ennuvolat a una alçada de 25000 ft

TAF: KHDC 011120Z 0112/0212 04005KT P6SM BKN250 FM020100 00000KT P6SM FEW045 BKN250

Observacions i pronòstics meteorològics de més de 4000 aeroports (METAR i TAF).

Les estacions disponibles són els punts grocs i vermells al mapa.

Posi el ratolí al punt desitjat per veure el nom de l'estació.

Feu clic per veure les observacions i els pronòstics meteorològics.

Per canviar el mapa: feu clic els botons verds amb una creu de color negre per apropar; al botó verd amb un guió per allunyar la imatge; o en les fletxes verdes per a mapes adjacents.


METAR-TAF: